sensor_id;sensor_type;location;lat;lon;timestamp;pressure;altitude;pressure_sealevel;temperature;humidity
22181;BME280;11256;50.830;12.834;2023-05-12T00:04:50;97502.09;;;15.23;48.77
22181;BME280;11256;50.830;12.834;2023-05-12T00:09:57;97532.38;;;15.35;48.90
22181;BME280;11256;50.830;12.834;2023-05-12T00:15:03;97567.63;;;15.45;49.06
22181;BME280;11256;50.830;12.834;2023-05-12T00:20:10;97559.84;;;15.38;49.14
22181;BME280;11256;50.830;12.834;2023-05-12T00:25:11;97567.25;;;15.38;49.20
22181;BME280;11256;50.830;12.834;2023-05-12T00:30:14;97564.84;;;15.36;49.31
22181;BME280;11256;50.830;12.834;2023-05-12T00:35:18;97573.69;;;15.33;49.26
22181;BME280;11256;50.830;12.834;2023-05-12T00:40:18;97556.22;;;15.21;49.50
22181;BME280;11256;50.830;12.834;2023-05-12T00:45:24;97554.09;;;15.18;49.57
22181;BME280;11256;50.830;12.834;2023-05-12T00:50:35;97558.56;;;15.14;49.56
22181;BME280;11256;50.830;12.834;2023-05-12T00:55:40;97546.81;;;15.05;49.73
22181;BME280;11256;50.830;12.834;2023-05-12T01:00:43;97549.53;;;15.05;49.82
22181;BME280;11256;50.830;12.834;2023-05-12T01:06:17;97547.59;;;15.05;49.92
22181;BME280;11256;50.830;12.834;2023-05-12T01:11:23;97545.00;;;15.00;49.92
22181;BME280;11256;50.830;12.834;2023-05-12T01:16:31;97560.59;;;15.00;50.02
22181;BME280;11256;50.830;12.834;2023-05-12T01:21:34;97547.25;;;14.98;50.11
22181;BME280;11256;50.830;12.834;2023-05-12T01:26:34;97541.13;;;14.93;50.19
22181;BME280;11256;50.830;12.834;2023-05-12T01:31:37;97546.06;;;14.91;50.24
22181;BME280;11256;50.830;12.834;2023-05-12T01:36:38;97546.72;;;14.88;50.26
22181;BME280;11256;50.830;12.834;2023-05-12T01:41:56;97550.56;;;14.87;50.33
22181;BME280;11256;50.830;12.834;2023-05-12T01:47:00;97539.25;;;14.80;50.19
22181;BME280;11256;50.830;12.834;2023-05-12T01:52:02;97543.13;;;14.79;50.51
22181;BME280;11256;50.830;12.834;2023-05-12T01:57:05;97545.34;;;14.77;50.49
22181;BME280;11256;50.830;12.834;2023-05-12T02:02:09;97542.88;;;14.67;50.62
22181;BME280;11256;50.830;12.834;2023-05-12T02:07:11;97547.69;;;14.70;50.43
22181;BME280;11256;50.830;12.834;2023-05-12T02:12:16;97538.16;;;14.59;50.52
22181;BME280;11256;50.830;12.834;2023-05-12T02:17:17;97539.25;;;14.58;50.72
22181;BME280;11256;50.830;12.834;2023-05-12T02:22:20;97550.06;;;14.63;50.67
22181;BME280;11256;50.830;12.834;2023-05-12T02:27:23;97537.78;;;14.52;50.97
22181;BME280;11256;50.830;12.834;2023-05-12T02:32:24;97543.41;;;14.55;51.06
22181;BME280;11256;50.830;12.834;2023-05-12T02:37:27;97535.81;;;14.44;51.18
22181;BME280;11256;50.830;12.834;2023-05-12T02:42:34;97552.16;;;14.44;51.25
22181;BME280;11256;50.830;12.834;2023-05-12T02:47:43;97540.00;;;14.28;51.42
22181;BME280;11256;50.830;12.834;2023-05-12T02:52:52;97550.81;;;14.19;51.22
22181;BME280;11256;50.830;12.834;2023-05-12T02:57:56;97551.59;;;14.20;51.73
22181;BME280;11256;50.830;12.834;2023-05-12T03:02:57;97537.88;;;14.11;51.68
22181;BME280;11256;50.830;12.834;2023-05-12T03:07:57;97538.41;;;14.00;52.01
22181;BME280;11256;50.830;12.834;2023-05-12T03:12:58;97527.22;;;13.88;51.88
22181;BME280;11256;50.830;12.834;2023-05-12T03:18:00;97529.75;;;13.84;51.87
22181;BME280;11256;50.830;12.834;2023-05-12T03:23:01;97547.78;;;13.94;52.01
22181;BME280;11256;50.830;12.834;2023-05-12T03:28:05;97539.34;;;13.82;51.92
22181;BME280;11256;50.830;12.834;2023-05-12T03:33:09;97545.41;;;13.79;52.05
22181;BME280;11256;50.830;12.834;2023-05-12T03:38:09;97550.22;;;13.82;52.11
22181;BME280;11256;50.830;12.834;2023-05-12T03:43:10;97537.44;;;13.69;52.09
22181;BME280;11256;50.830;12.834;2023-05-12T03:48:10;97552.84;;;13.73;52.30
22181;BME280;11256;50.830;12.834;2023-05-12T03:53:11;97546.09;;;13.71;52.37
22181;BME280;11256;50.830;12.834;2023-05-12T03:58:11;97545.81;;;13.72;52.48
22181;BME280;11256;50.830;12.834;2023-05-12T04:03:11;97549.34;;;13.73;52.38
22181;BME280;11256;50.830;12.834;2023-05-12T04:08:13;97558.00;;;13.75;52.44
22181;BME280;11256;50.830;12.834;2023-05-12T04:13:13;97552.56;;;13.75;52.74
22181;BME280;11256;50.830;12.834;2023-05-12T04:18:14;97553.16;;;13.72;52.87
22181;BME280;11256;50.830;12.834;2023-05-12T04:23:14;97557.00;;;13.71;52.74
22181;BME280;11256;50.830;12.834;2023-05-12T04:28:15;97567.28;;;13.74;52.74
22181;BME280;11256;50.830;12.834;2023-05-12T04:33:15;97564.56;;;13.74;53.01
22181;BME280;11256;50.830;12.834;2023-05-12T04:38:17;97570.03;;;13.74;53.27
22181;BME280;11256;50.830;12.834;2023-05-12T04:43:17;97560.94;;;13.65;53.25
22181;BME280;11256;50.830;12.834;2023-05-12T04:48:18;97572.94;;;13.77;52.92
22181;BME280;11256;50.830;12.834;2023-05-12T04:53:18;97576.25;;;13.74;52.85
22181;BME280;11256;50.830;12.834;2023-05-12T04:58:19;97574.25;;;13.80;53.18
22181;BME280;11256;50.830;12.834;2023-05-12T05:03:20;97582.31;;;13.85;52.90
22181;BME280;11256;50.830;12.834;2023-05-12T05:08:21;97576.88;;;13.85;52.92
22181;BME280;11256;50.830;12.834;2023-05-12T05:13:22;97590.38;;;13.90;52.79
22181;BME280;11256;50.830;12.834;2023-05-12T05:18:22;97582.13;;;13.95;53.19
22181;BME280;11256;50.830;12.834;2023-05-12T05:23:23;97588.56;;;13.99;53.08
22181;BME280;11256;50.830;12.834;2023-05-12T05:28:23;97578.28;;;13.96;53.12
22181;BME280;11256;50.830;12.834;2023-05-12T05:33:25;97596.63;;;14.04;53.24
22181;BME280;11256;50.830;12.834;2023-05-12T05:38:26;97598.03;;;14.15;53.70
22181;BME280;11256;50.830;12.834;2023-05-12T05:43:26;97603.09;;;14.21;53.45
22181;BME280;11256;50.830;12.834;2023-05-12T05:48:28;97593.31;;;14.20;53.63
22181;BME280;11256;50.830;12.834;2023-05-12T05:53:28;97612.84;;;14.36;54.07
22181;BME280;11256;50.830;12.834;2023-05-12T05:58:29;97600.84;;;14.37;53.56
22181;BME280;11256;50.830;12.834;2023-05-12T06:03:29;97606.06;;;14.47;54.53
22181;BME280;11256;50.830;12.834;2023-05-12T06:08:30;97610.47;;;14.56;53.85
22181;BME280;11256;50.830;12.834;2023-05-12T06:13:31;97605.34;;;14.55;53.53
22181;BME280;11256;50.830;12.834;2023-05-12T06:18:31;97612.84;;;14.71;53.25
22181;BME280;11256;50.830;12.834;2023-05-12T06:23:36;97610.94;;;14.72;53.38
22181;BME280;11256;50.830;12.834;2023-05-12T06:28:37;97617.47;;;14.84;53.37
22181;BME280;11256;50.830;12.834;2023-05-12T06:33:37;97627.34;;;14.94;53.52
22181;BME280;11256;50.830;12.834;2023-05-12T06:38:37;97620.63;;;15.00;53.31
22181;BME280;11256;50.830;12.834;2023-05-12T06:43:38;97629.69;;;15.09;53.50
22181;BME280;11256;50.830;12.834;2023-05-12T06:48:39;97633.28;;;15.18;53.41
22181;BME280;11256;50.830;12.834;2023-05-12T06:53:39;97636.06;;;15.26;54.00
22181;BME280;11256;50.830;12.834;2023-05-12T06:58:40;97634.25;;;15.35;53.61
22181;BME280;11256;50.830;12.834;2023-05-12T07:03:41;97634.16;;;15.49;54.88
22181;BME280;11256;50.830;12.834;2023-05-12T07:08:41;97625.19;;;15.57;55.44
22181;BME280;11256;50.830;12.834;2023-05-12T07:13:41;97641.22;;;15.80;55.69
22181;BME280;11256;50.830;12.834;2023-05-12T07:18:42;97630.19;;;15.94;55.92
22181;BME280;11256;50.830;12.834;2023-05-12T07:23:42;97634.94;;;16.19;55.50
22181;BME280;11256;50.830;12.834;2023-05-12T07:28:43;97635.47;;;16.38;56.35
22181;BME280;11256;50.830;12.834;2023-05-12T07:33:43;97632.78;;;16.63;56.46
22181;BME280;11256;50.830;12.834;2023-05-12T07:38:43;97607.06;;;16.81;56.61
22181;BME280;11256;50.830;12.834;2023-05-12T07:43:44;97619.13;;;17.23;56.15
22181;BME280;11256;50.830;12.834;2023-05-12T07:48:44;97609.69;;;17.58;56.52
22181;BME280;11256;50.830;12.834;2023-05-12T07:53:45;97633.72;;;18.07;56.15
22181;BME280;11256;50.830;12.834;2023-05-12T07:58:45;97634.44;;;18.53;55.98
22181;BME280;11256;50.830;12.834;2023-05-12T08:03:45;97631.88;;;18.98;54.71
22181;BME280;11256;50.830;12.834;2023-05-12T08:08:46;97629.59;;;19.41;54.41
22181;BME280;11256;50.830;12.834;2023-05-12T08:13:46;97634.03;;;19.78;53.98
22181;BME280;11256;50.830;12.834;2023-05-12T08:18:46;97630.16;;;20.03;53.16
22181;BME280;11256;50.830;12.834;2023-05-12T08:23:47;97637.78;;;20.54;52.13
22181;BME280;11256;50.830;12.834;2023-05-12T08:28:47;97635.53;;;21.07;52.03
22181;BME280;11256;50.830;12.834;2023-05-12T08:33:48;97646.06;;;21.72;51.42
22181;BME280;11256;50.830;12.834;2023-05-12T08:38:50;97653.00;;;22.56;51.14
22181;BME280;11256;50.830;12.834;2023-05-12T08:43:51;97655.16;;;23.16;50.18
22181;BME280;11256;50.830;12.834;2023-05-12T08:48:52;97653.34;;;23.80;48.53
22181;BME280;11256;50.830;12.834;2023-05-12T08:53:54;97644.66;;;24.46;46.90
22181;BME280;11256;50.830;12.834;2023-05-12T08:58:55;97644.44;;;25.10;42.11
22181;BME280;11256;50.830;12.834;2023-05-12T09:03:56;97639.56;;;25.92;44.05
22181;BME280;11256;50.830;12.834;2023-05-12T09:08:56;97636.59;;;26.11;41.23
22181;BME280;11256;50.830;12.834;2023-05-12T09:14:00;97643.38;;;26.13;41.48
22181;BME280;11256;50.830;12.834;2023-05-12T09:19:02;97633.66;;;25.97;37.72
22181;BME280;11256;50.830;12.834;2023-05-12T09:24:04;97639.56;;;25.92;40.39
22181;BME280;11256;50.830;12.834;2023-05-12T09:29:06;97618.00;;;25.45;38.18
22181;BME280;11256;50.830;12.834;2023-05-12T09:34:08;97622.75;;;25.15;39.69
22181;BME280;11256;50.830;12.834;2023-05-12T09:39:09;97620.50;;;24.95;40.19
22181;BME280;11256;50.830;12.834;2023-05-12T09:44:13;97620.81;;;24.90;37.76
22181;BME280;11256;50.830;12.834;2023-05-12T09:49:20;97638.16;;;25.39;36.35
22181;BME280;11256;50.830;12.834;2023-05-12T09:54:25;97629.78;;;25.68;37.45
22181;BME280;11256;50.830;12.834;2023-05-12T09:59:35;97623.16;;;25.47;36.47
22181;BME280;11256;50.830;12.834;2023-05-12T10:04:47;97628.03;;;24.98;33.96
22181;BME280;11256;50.830;12.834;2023-05-12T10:09:48;97630.25;;;24.37;33.31
22181;BME280;11256;50.830;12.834;2023-05-12T10:14:49;97643.19;;;24.07;33.05
22181;BME280;11256;50.830;12.834;2023-05-12T10:19:51;97634.63;;;23.74;35.59
22181;BME280;11256;50.830;12.834;2023-05-12T10:24:52;97635.09;;;23.57;35.12
22181;BME280;11256;50.830;12.834;2023-05-12T10:29:54;97615.59;;;23.31;34.13
22181;BME280;11256;50.830;12.834;2023-05-12T10:34:54;97620.81;;;23.17;34.33
22181;BME280;11256;50.830;12.834;2023-05-12T10:39:55;97627.47;;;22.97;35.51
22181;BME280;11256;50.830;12.834;2023-05-12T10:45:00;97631.53;;;22.34;34.19
22181;BME280;11256;50.830;12.834;2023-05-12T10:50:01;97634.91;;;22.12;34.65
22181;BME280;11256;50.830;12.834;2023-05-12T10:55:02;97627.75;;;21.80;35.24
22181;BME280;11256;50.830;12.834;2023-05-12T11:00:03;97636.22;;;21.71;35.56
22181;BME280;11256;50.830;12.834;2023-05-12T11:05:10;97634.69;;;21.74;36.08
22181;BME280;11256;50.830;12.834;2023-05-12T11:10:10;97636.91;;;21.68;35.94
22181;BME280;11256;50.830;12.834;2023-05-12T11:15:11;97633.84;;;22.01;38.53
22181;BME280;11256;50.830;12.834;2023-05-12T11:20:21;97641.22;;;22.28;38.36
22181;BME280;11256;50.830;12.834;2023-05-12T11:25:25;97615.31;;;22.17;35.85
22181;BME280;11256;50.830;12.834;2023-05-12T11:30:25;97632.94;;;22.28;36.15
22181;BME280;11256;50.830;12.834;2023-05-12T11:35:29;97629.56;;;22.19;35.77
22181;BME280;11256;50.830;12.834;2023-05-12T11:40:30;97622.97;;;22.39;35.85
22181;BME280;11256;50.830;12.834;2023-05-12T11:45:30;97643.81;;;22.52;34.75
22181;BME280;11256;50.830;12.834;2023-05-12T11:50:33;97648.63;;;22.55;35.68
22181;BME280;11256;50.830;12.834;2023-05-12T11:55:36;97653.97;;;22.32;34.66
22181;BME280;11256;50.830;12.834;2023-05-12T12:00:36;97650.78;;;22.30;34.85
22181;BME280;11256;50.830;12.834;2023-05-12T12:05:37;97662.44;;;22.24;36.11
22181;BME280;11256;50.830;12.834;2023-05-12T12:10:41;97670.06;;;21.99;34.56
22181;BME280;11256;50.830;12.834;2023-05-12T12:15:42;97646.75;;;22.12;36.38
22181;BME280;11256;50.830;12.834;2023-05-12T12:20:42;97658.94;;;21.96;35.16
22181;BME280;11256;50.830;12.834;2023-05-12T12:25:43;97671.66;;;22.00;36.12
22181;BME280;11256;50.830;12.834;2023-05-12T12:30:43;97665.81;;;22.02;36.22
22181;BME280;11256;50.830;12.834;2023-05-12T12:35:44;97673.00;;;22.06;35.60
22181;BME280;11256;50.830;12.834;2023-05-12T12:40:45;97655.63;;;21.90;35.85
22181;BME280;11256;50.830;12.834;2023-05-12T12:45:45;97667.66;;;21.82;36.56
22181;BME280;11256;50.830;12.834;2023-05-12T12:50:46;97672.22;;;22.06;36.98
22181;BME280;11256;50.830;12.834;2023-05-12T12:55:46;97670.03;;;21.84;35.75
22181;BME280;11256;50.830;12.834;2023-05-12T13:00:46;97678.72;;;21.70;35.31
22181;BME280;11256;50.830;12.834;2023-05-12T13:05:47;97684.56;;;21.81;35.95
22181;BME280;11256;50.830;12.834;2023-05-12T13:10:47;97685.97;;;21.75;36.19
22181;BME280;11256;50.830;12.834;2023-05-12T13:15:48;97662.53;;;21.69;36.37
22181;BME280;11256;50.830;12.834;2023-05-12T13:20:48;97680.31;;;21.99;37.59
22181;BME280;11256;50.830;12.834;2023-05-12T13:25:48;97672.44;;;21.85;36.12
22181;BME280;11256;50.830;12.834;2023-05-12T13:30:50;97675.28;;;21.89;36.01
22181;BME280;11256;50.830;12.834;2023-05-12T13:35:51;97670.16;;;22.03;37.03
22181;BME280;11256;50.830;12.834;2023-05-12T13:40:51;97664.88;;;21.82;35.00
22181;BME280;11256;50.830;12.834;2023-05-12T13:45:52;97666.66;;;21.90;35.42
22181;BME280;11256;50.830;12.834;2023-05-12T13:50:52;97664.31;;;21.77;34.41
22181;BME280;11256;50.830;12.834;2023-05-12T13:55:52;97663.47;;;21.88;35.48
22181;BME280;11256;50.830;12.834;2023-05-12T14:00:53;97673.22;;;22.29;39.17
22181;BME280;11256;50.830;12.834;2023-05-12T14:05:53;97664.38;;;21.92;35.03
22181;BME280;11256;50.830;12.834;2023-05-12T14:10:53;97662.47;;;21.81;36.74
22181;BME280;11256;50.830;12.834;2023-05-12T14:15:54;97649.53;;;21.69;35.93
22181;BME280;11256;50.830;12.834;2023-05-12T14:20:55;97654.00;;;21.74;37.29
22181;BME280;11256;50.830;12.834;2023-05-12T14:25:56;97668.75;;;22.09;38.44
22181;BME280;11256;50.830;12.834;2023-05-12T14:30:56;97669.97;;;21.96;37.88
22181;BME280;11256;50.830;12.834;2023-05-12T14:35:57;97671.78;;;22.35;41.08
22181;BME280;11256;50.830;12.834;2023-05-12T14:40:57;97655.09;;;22.62;41.22
22181;BME280;11256;50.830;12.834;2023-05-12T14:45:57;97647.56;;;22.44;34.11
22181;BME280;11256;50.830;12.834;2023-05-12T14:50:57;97663.78;;;22.61;34.90
22181;BME280;11256;50.830;12.834;2023-05-12T14:55:58;97664.75;;;22.53;35.57
22181;BME280;11256;50.830;12.834;2023-05-12T15:00:58;97659.22;;;22.53;38.18
22181;BME280;11256;50.830;12.834;2023-05-12T15:06:00;97657.59;;;22.83;38.19
22181;BME280;11256;50.830;12.834;2023-05-12T15:11:01;97652.22;;;23.24;41.50
22181;BME280;11256;50.830;12.834;2023-05-12T15:16:02;97660.88;;;23.61;39.11
22181;BME280;11256;50.830;12.834;2023-05-12T15:21:03;97668.00;;;23.81;36.28
22181;BME280;11256;50.830;12.834;2023-05-12T15:26:05;97674.00;;;23.26;35.71
22181;BME280;11256;50.830;12.834;2023-05-12T15:31:09;97679.13;;;23.27;37.05
22181;BME280;11256;50.830;12.834;2023-05-12T15:36:09;97685.84;;;22.76;36.72
22181;BME280;11256;50.830;12.834;2023-05-12T15:41:10;97688.66;;;22.95;40.33
22181;BME280;11256;50.830;12.834;2023-05-12T15:46:10;97702.09;;;22.62;39.20
22181;BME280;11256;50.830;12.834;2023-05-12T15:51:11;97698.16;;;22.79;39.14
22181;BME280;11256;50.830;12.834;2023-05-12T15:56:11;97701.66;;;23.10;41.97
22181;BME280;11256;50.830;12.834;2023-05-12T16:01:11;97699.41;;;23.16;42.48
22181;BME280;11256;50.830;12.834;2023-05-12T16:06:12;97687.38;;;23.24;42.68
22181;BME280;11256;50.830;12.834;2023-05-12T16:11:12;97688.81;;;23.18;43.22
22181;BME280;11256;50.830;12.834;2023-05-12T16:16:13;97680.63;;;23.06;43.21
22181;BME280;11256;50.830;12.834;2023-05-12T16:21:13;97686.84;;;23.03;43.60
22181;BME280;11256;50.830;12.834;2023-05-12T16:26:13;97689.81;;;22.94;43.79
22181;BME280;11256;50.830;12.834;2023-05-12T16:31:14;97702.09;;;22.78;44.70
22181;BME280;11256;50.830;12.834;2023-05-12T16:36:17;97714.06;;;22.51;42.65
22181;BME280;11256;50.830;12.834;2023-05-12T16:41:17;97702.88;;;21.73;42.37
22181;BME280;11256;50.830;12.834;2023-05-12T16:46:17;97703.69;;;21.62;43.36
22181;BME280;11256;50.830;12.834;2023-05-12T16:51:18;97711.09;;;21.46;42.25
22181;BME280;11256;50.830;12.834;2023-05-12T16:56:18;97713.00;;;21.57;44.27
22181;BME280;11256;50.830;12.834;2023-05-12T17:01:18;97716.50;;;21.54;43.78
22181;BME280;11256;50.830;12.834;2023-05-12T17:06:19;97717.03;;;21.32;42.93
22181;BME280;11256;50.830;12.834;2023-05-12T17:11:19;97708.66;;;21.17;43.33
22181;BME280;11256;50.830;12.834;2023-05-12T17:16:20;97717.59;;;21.26;44.09
22181;BME280;11256;50.830;12.834;2023-05-12T17:21:20;97718.75;;;21.25;43.99
22181;BME280;11256;50.830;12.834;2023-05-12T17:26:20;97715.31;;;21.16;43.89
22181;BME280;11256;50.830;12.834;2023-05-12T17:31:21;97724.63;;;20.99;42.86
22181;BME280;11256;50.830;12.834;2023-05-12T17:36:22;97714.91;;;20.90;43.73
22181;BME280;11256;50.830;12.834;2023-05-12T17:41:22;97723.16;;;21.02;43.88
22181;BME280;11256;50.830;12.834;2023-05-12T17:46:23;97733.28;;;20.98;44.11
22181;BME280;11256;50.830;12.834;2023-05-12T17:51:23;97710.75;;;20.84;44.13
22181;BME280;11256;50.830;12.834;2023-05-12T17:56:23;97733.28;;;20.98;44.06
22181;BME280;11256;50.830;12.834;2023-05-12T18:01:24;97732.59;;;20.89;44.04
22181;BME280;11256;50.830;12.834;2023-05-12T18:06:24;97768.16;;;20.82;43.75
22181;BME280;11256;50.830;12.834;2023-05-12T18:11:25;97782.38;;;20.60;44.10
22181;BME280;11256;50.830;12.834;2023-05-12T18:16:25;97780.69;;;19.70;43.40
22181;BME280;11256;50.830;12.834;2023-05-12T18:21:26;97762.13;;;18.97;44.53
22181;BME280;11256;50.830;12.834;2023-05-12T18:26:27;97769.78;;;18.54;46.12
22181;BME280;11256;50.830;12.834;2023-05-12T18:31:27;97738.06;;;18.94;47.29
22181;BME280;11256;50.830;12.834;2023-05-12T18:36:28;97771.66;;;18.62;47.35
22181;BME280;11256;50.830;12.834;2023-05-12T18:41:28;97757.19;;;18.82;47.96
22181;BME280;11256;50.830;12.834;2023-05-12T18:46:28;97764.09;;;18.88;47.38
22181;BME280;11256;50.830;12.834;2023-05-12T18:51:29;97745.34;;;18.90;47.34
22181;BME280;11256;50.830;12.834;2023-05-12T18:56:29;97739.19;;;18.93;47.29
22181;BME280;11256;50.830;12.834;2023-05-12T19:01:30;97733.25;;;18.91;47.19
22181;BME280;11256;50.830;12.834;2023-05-12T19:06:30;97740.53;;;18.87;46.99
22181;BME280;11256;50.830;12.834;2023-05-12T19:11:31;97772.41;;;18.79;47.11
22181;BME280;11256;50.830;12.834;2023-05-12T19:16:31;97783.69;;;18.49;48.08
22181;BME280;11256;50.830;12.834;2023-05-12T19:21:31;97788.97;;;18.62;47.68
22181;BME280;11256;50.830;12.834;2023-05-12T19:26:32;97788.53;;;18.52;47.40
22181;BME280;11256;50.830;12.834;2023-05-12T19:31:33;97800.16;;;18.49;47.24
22181;BME280;11256;50.830;12.834;2023-05-12T19:36:34;97802.56;;;18.50;47.29
22181;BME280;11256;50.830;12.834;2023-05-12T19:41:35;97799.34;;;18.48;47.17
22181;BME280;11256;50.830;12.834;2023-05-12T19:46:35;97800.50;;;18.39;47.29
22181;BME280;11256;50.830;12.834;2023-05-12T19:51:36;97810.03;;;18.41;47.15
22181;BME280;11256;50.830;12.834;2023-05-12T19:56:36;97809.19;;;18.41;47.20
22181;BME280;11256;50.830;12.834;2023-05-12T20:01:36;97818.09;;;18.38;47.24
22181;BME280;11256;50.830;12.834;2023-05-12T20:06:37;97807.91;;;18.30;47.18
22181;BME280;11256;50.830;12.834;2023-05-12T20:11:37;97821.50;;;18.35;47.19
22181;BME280;11256;50.830;12.834;2023-05-12T20:16:37;97815.69;;;18.28;47.33
22181;BME280;11256;50.830;12.834;2023-05-12T20:21:38;97816.50;;;18.28;47.27
22181;BME280;11256;50.830;12.834;2023-05-12T20:26:40;97815.84;;;18.23;47.39
22181;BME280;11256;50.830;12.834;2023-05-12T20:31:41;97814.25;;;18.13;47.44
22181;BME280;11256;50.830;12.834;2023-05-12T20:36:42;97832.47;;;18.18;47.59
22181;BME280;11256;50.830;12.834;2023-05-12T20:41:43;97837.66;;;18.11;47.45
22181;BME280;11256;50.830;12.834;2023-05-12T20:46:43;97821.53;;;18.01;47.65
22181;BME280;11256;50.830;12.834;2023-05-12T20:51:44;97830.28;;;18.03;47.94
22181;BME280;11256;50.830;12.834;2023-05-12T20:56:45;97819.47;;;17.89;47.90
22181;BME280;11256;50.830;12.834;2023-05-12T21:01:45;97847.03;;;17.93;47.92
22181;BME280;11256;50.830;12.834;2023-05-12T21:06:45;97839.47;;;17.90;48.00
22181;BME280;11256;50.830;12.834;2023-05-12T21:11:46;97840.28;;;17.82;48.11
22181;BME280;11256;50.830;12.834;2023-05-12T21:16:46;97838.47;;;17.77;48.26
22181;BME280;11256;50.830;12.834;2023-05-12T21:21:47;97844.47;;;17.71;48.15
22181;BME280;11256;50.830;12.834;2023-05-12T21:26:47;97849.59;;;17.64;48.53
22181;BME280;11256;50.830;12.834;2023-05-12T21:31:47;97841.38;;;17.55;48.46
22181;BME280;11256;50.830;12.834;2023-05-12T21:36:48;97848.31;;;17.53;48.72
22181;BME280;11256;50.830;12.834;2023-05-12T21:41:48;97848.97;;;17.50;48.79
22181;BME280;11256;50.830;12.834;2023-05-12T21:46:49;97835.06;;;17.38;48.93
22181;BME280;11256;50.830;12.834;2023-05-12T21:51:53;97847.94;;;17.29;49.02
22181;BME280;11256;50.830;12.834;2023-05-12T21:56:54;97858.06;;;17.28;49.09
22181;BME280;11256;50.830;12.834;2023-05-12T22:01:54;97858.22;;;17.23;49.20
22181;BME280;11256;50.830;12.834;2023-05-12T22:06:55;97860.63;;;17.16;49.38
22181;BME280;11256;50.830;12.834;2023-05-12T22:11:55;97857.03;;;17.07;49.49
22181;BME280;11256;50.830;12.834;2023-05-12T22:16:55;97869.56;;;16.91;49.40
22181;BME280;11256;50.830;12.834;2023-05-12T22:21:56;97874.84;;;16.88;49.66
22181;BME280;11256;50.830;12.834;2023-05-12T22:26:57;97875.50;;;16.85;49.66
22181;BME280;11256;50.830;12.834;2023-05-12T22:31:57;97866.25;;;16.72;49.76
22181;BME280;11256;50.830;12.834;2023-05-12T22:36:58;97863.50;;;16.64;49.67
22181;BME280;11256;50.830;12.834;2023-05-12T22:41:58;97870.22;;;16.58;49.79
22181;BME280;11256;50.830;12.834;2023-05-12T22:46:58;97888.38;;;16.54;50.06
22181;BME280;11256;50.830;12.834;2023-05-12T22:51:59;97902.72;;;16.51;49.92
22181;BME280;11256;50.830;12.834;2023-05-12T22:56:59;97903.75;;;16.41;50.11
22181;BME280;11256;50.830;12.834;2023-05-12T23:01:59;97908.22;;;16.37;50.33
22181;BME280;11256;50.830;12.834;2023-05-12T23:07:00;97902.69;;;16.29;49.98
22181;BME280;11256;50.830;12.834;2023-05-12T23:12:00;97908.59;;;16.22;50.33
22181;BME280;11256;50.830;12.834;2023-05-12T23:17:01;97915.63;;;16.15;50.53
22181;BME280;11256;50.830;12.834;2023-05-12T23:22:01;97902.69;;;16.07;50.34
22181;BME280;11256;50.830;12.834;2023-05-12T23:27:01;97890.00;;;15.89;50.25
22181;BME280;11256;50.830;12.834;2023-05-12T23:32:02;97892.41;;;15.90;50.66
22181;BME280;11256;50.830;12.834;2023-05-12T23:37:03;97891.84;;;15.80;50.26
22181;BME280;11256;50.830;12.834;2023-05-12T23:42:03;97897.09;;;15.76;50.51
22181;BME280;11256;50.830;12.834;2023-05-12T23:47:04;97897.75;;;15.73;50.65
22181;BME280;11256;50.830;12.834;2023-05-12T23:52:04;97887.25;;;15.53;50.71
22181;BME280;11256;50.830;12.834;2023-05-12T23:57:05;97883.03;;;15.47;50.88
